Vronskiy — C4AY2 — position and weather

sailwx.info

Track history (hours):
 
Tides and Currents Weather Stations Pressure Air Temp Water Temp Dewpoint Dewpoint Depression Visibility Wind Speed Wind Dir Waves Ship Positions

Vronskiy

Last reported at 2015-May-26 09:33 UTC. Time now 2015-May-26 09:39 UTC.
Position N 36°50' W 002°28'.

Length 131 m; draft 5.2 m.

Type: Passenger vessel. MMSI: 210030000.

Date/timePositionNaut miles runAvg speedWind from/ knotsBaromVisibWave heightAir tempDewpointWater temp
2015-May-26 09:33N 36°50' W 002°28'0 0.0
2015-May-26 07:33N 36°50' W 002°28'0 0.0
2015-May-26 06:33N 36°50' W 002°28'0 0.0
2015-May-26 05:33N 36°50' W 002°28'0 0.0
2015-May-26 04:33N 36°50' W 002°28'0 0.0
2015-May-26 03:33N 36°50' W 002°28'0 0.0
2015-May-26 02:33N 36°50' W 002°28'0 0.0
2015-May-26 00:30N 36°50' W 002°28'0 0.0
2015-May-25 23:33N 36°50' W 002°28'0 0.0
2015-May-25 22:33N 36°50' W 002°28'0 0.2
2015-May-25 21:33N 36°50' W 002°28'1514.6
2015-May-25 20:33N 36°35' W 002°25'1615.3
2015-May-25 19:33N 36°20' W 002°21'16 0.8
2015-May-24 23:07N 36°36' W 002°25'915.8
2015-May-24 22:34N 36°45' W 002°27'5 5.1
2015-May-24 21:32N 36°50' W 002°28'0 0.0
2015-May-24 20:32N 36°50' W 002°28'0 0.0
2015-May-24 19:32N 36°50' W 002°28'0 0.0
2015-May-24 18:32N 36°50' W 002°28'0 0.0
2015-May-24 17:32N 36°50' W 002°28'0 0.0
2015-May-24 16:31N 36°50' W 002°28'0 0.0
2015-May-24 15:31N 36°50' W 002°28'0 0.0
2015-May-24 14:31N 36°50' W 002°28'0 0.0
2015-May-24 13:31N 36°50' W 002°28'0 0.0
2015-May-24 12:31N 36°50' W 002°28'0 0.0
2015-May-24 11:31N 36°50' W 002°28'0 0.0
2015-May-24 10:31N 36°50' W 002°28'0 0.0
2015-May-24 09:31N 36°50' W 002°28'0 0.0
2015-May-24 08:31N 36°50' W 002°28'0 0.0
2015-May-24 07:31N 36°50' W 002°28'0 0.0
2015-May-24 06:31N 36°50' W 002°28'0 0.0
2015-May-24 05:31N 36°50' W 002°28'0 0.0
2015-May-24 04:31N 36°50' W 002°28'0 0.0
2015-May-24 03:31N 36°50' W 002°28'0 0.0
2015-May-24 02:31N 36°50' W 002°28'0 0.0
2015-May-24 01:31N 36°50' W 002°28'0 0.0
2015-May-24 00:31N 36°50' W 002°28'0 0.0
2015-May-23 23:31N 36°50' W 002°28'0 0.0
2015-May-23 22:31N 36°50' W 002°28'0 0.0
2015-May-23 21:31N 36°50' W 002°28'0 0.0
2015-May-23 20:34N 36°50' W 002°28'1212.0
2015-May-23 19:34N 36°38' W 002°25'4016.2
2015-May-23 17:06N 35°60' W 002°13'915.9
2015-May-23 16:32N 35°51' W 002°09'3715.9
2015-May-23 14:10N 35°15' W 001°56'84 5.7
2015-May-22 23:33N 36°36' W 002°25'1010.1
2015-May-22 22:33N 36°46' W 002°27'5 4.6
2015-May-22 21:33N 36°50' W 002°28'0 0.0
2015-May-22 20:33N 36°50' W 002°28'0 0.0
2015-May-22 19:33N 36°50' W 002°28'0 0.0
2015-May-22 18:33N 36°50' W 002°28'0 0.0
2015-May-22 17:33N 36°50' W 002°28'0 0.0
2015-May-22 16:33N 36°50' W 002°28'0 0.0
2015-May-22 15:33N 36°50' W 002°28'0 0.0
2015-May-22 14:33N 36°50' W 002°28'0 0.0
2015-May-22 13:33N 36°50' W 002°28'0 0.0
2015-May-22 12:33N 36°50' W 002°28'0 0.0
2015-May-22 11:33N 36°50' W 002°28'0 0.0
2015-May-22 10:33N 36°50' W 002°28'0 0.0
2015-May-22 09:30N 36°50' W 002°28'0 0.0
2015-May-22 08:33N 36°50' W 002°28'0 0.0
2015-May-22 07:33N 36°50' W 002°28'0 0.0
2015-May-22 06:33N 36°50' W 002°28'0 0.0
2015-May-22 05:33N 36°50' W 002°28'0 0.0
2015-May-22 04:33N 36°50' W 002°28'0 0.0
2015-May-22 03:33N 36°50' W 002°28'0 0.0
2015-May-22 02:33N 36°50' W 002°28'0 0.0
2015-May-22 01:33N 36°50' W 002°28'0 0.0
2015-May-22 00:33N 36°50' W 002°28'0 0.0
2015-May-21 23:33N 36°50' W 002°28'0 0.0
2015-May-21 22:33N 36°50' W 002°28'0 0.0
2015-May-21 21:33N 36°50' W 002°28'0 0.0
2015-May-21 20:33N 36°50' W 002°28'0 0.0
2015-May-21 19:33N 36°50' W 002°28'0 0.0
2015-May-21 18:33N 36°50' W 002°28'0 0.0
2015-May-21 17:33N 36°50' W 002°28'0 0.0
2015-May-21 16:33N 36°50' W 002°28'0 0.0
2015-May-21 15:33N 36°50' W 002°28'0 0.0
2015-May-21 14:33N 36°50' W 002°28'0 0.0
2015-May-21 13:33N 36°50' W 002°28'0 0.0
2015-May-21 12:30N 36°50' W 002°28'0 0.0
2015-May-21 11:33N 36°50' W 002°28'0 0.0
2015-May-21 10:33N 36°50' W 002°28'0 0.0
2015-May-21 09:33N 36°50' W 002°28'0 0.0
2015-May-21 07:33N 36°50' W 002°28'0 0.0
2015-May-21 06:33N 36°50' W 002°28'0 0.0
2015-May-21 05:33N 36°50' W 002°28'0 0.0
2015-May-21 04:32N 36°50' W 002°28'0 0.0
2015-May-21 03:32N 36°50' W 002°28'0 0.0
2015-May-21 02:32N 36°50' W 002°28'0 0.0
2015-May-21 01:32N 36°50' W 002°28'0 0.0
2015-May-21 00:32N 36°50' W 002°28'0 0.0
2015-May-20 23:32N 36°50' W 002°28'0 0.0
2015-May-20 22:33N 36°50' W 002°28'10 9.5
2015-May-20 21:33N 36°41' W 002°26'6 0.3
2015-May-19 23:28N 36°35' W 002°25'1011.3
2015-May-19 22:34N 36°45' W 002°27'5 4.7
2015-May-19 21:31N 36°50' W 002°28'0 0.0
2015-May-19 20:31N 36°50' W 002°28'0 0.0
2015-May-19 19:31N 36°50' W 002°28'0 0.0
2015-May-19 18:31N 36°50' W 002°28'0 0.0
2015-May-19 17:31N 36°50' W 002°28'0 0.0
2015-May-19 16:31N 36°50' W 002°28'0 0.0
2015-May-19 15:31N 36°50' W 002°28'0 0.0
2015-May-19 14:31N 36°50' W 002°28'0 0.0
2015-May-19 13:31N 36°50' W 002°28'0 0.0
2015-May-19 12:31N 36°50' W 002°28'0 0.0
2015-May-19 11:31N 36°50' W 002°28'0 0.0
2015-May-19 10:31N 36°50' W 002°28'0 0.0
2015-May-19 09:28N 36°50' W 002°28'0 0.0
2015-May-19 08:31N 36°50' W 002°28'0 0.0
2015-May-19 07:28N 36°50' W 002°28'0 0.0
2015-May-19 06:31N 36°50' W 002°28'0 0.0
2015-May-19 05:33N 36°50' W 002°28'0 0.0
2015-May-19 04:33N 36°50' W 002°28'0 0.0
2015-May-19 03:33N 36°50' W 002°28'0 0.0
2015-May-19 02:33N 36°50' W 002°28'0 0.0
2015-May-19 01:33N 36°50' W 002°28'0 0.0
2015-May-19 00:33N 36°50' W 002°28'0 0.0
2015-May-18 23:33N 36°50' W 002°28'0 0.0
2015-May-18 22:33N 36°50' W 002°28'0 0.0
2015-May-18 21:32N 36°50' W 002°28'8 7.9
2015-May-18 20:33N 36°42' W 002°26'1816.3
2015-May-18 19:27N 36°25' W 002°23'3015.2
2015-May-18 17:30N 36°08' W 001°52'1515.8
2015-May-18 16:33N 36°02' W 001°35'1615.8
2015-May-18 15:33N 35°57' W 001°17'1515.2
2015-May-18 14:33N 35°54' W 000°58'1514.9
2015-May-18 13:33N 35°52' W 000°40'95 6.6
2015-May-17 23:08N 36°35' W 002°25'814.6
2015-May-17 22:34N 36°43' W 002°27'7 6.3
2015-May-17 21:31N 36°50' W 002°28'0 0.0
2015-May-17 20:31N 36°50' W 002°28'0 0.0
2015-May-17 07:18N 36°50' W 002°28'  
Track history (hours):
 
Tides and Currents Weather Stations Pressure Air Temp Water Temp Dewpoint Dewpoint Depression Visibility Wind Speed Wind Dir Waves Ship Positions

Vronskiy

Last reported at 2015-May-26 09:33 UTC. Time now 2015-May-26 09:39 UTC.
Position N 36°50' W 002°28'.

Length 131 m; draft 5.2 m.

Type: Passenger vessel. MMSI: 210030000.

Date/timePositionNaut miles runAvg speedWind from/ knotsBaromVisibWave heightAir tempDewpointWater temp
2015-May-26 09:33N 36°50' W 002°28'0 0.0
2015-May-26 07:33N 36°50' W 002°28'0 0.0
2015-May-26 06:33N 36°50' W 002°28'0 0.0
2015-May-26 05:33N 36°50' W 002°28'0 0.0
2015-May-26 04:33N 36°50' W 002°28'0 0.0
2015-May-26 03:33N 36°50' W 002°28'0 0.0
2015-May-26 02:33N 36°50' W 002°28'0 0.0
2015-May-26 00:30N 36°50' W 002°28'0 0.0
2015-May-25 23:33N 36°50' W 002°28'0 0.0
2015-May-25 22:33N 36°50' W 002°28'0 0.2
2015-May-25 21:33N 36°50' W 002°28'1514.6
2015-May-25 20:33N 36°35' W 002°25'1615.3
2015-May-25 19:33N 36°20' W 002°21'16 0.8
2015-May-24 23:07N 36°36' W 002°25'915.8
2015-May-24 22:34N 36°45' W 002°27'5 5.1
2015-May-24 21:32N 36°50' W 002°28'0 0.0
2015-May-24 20:32N 36°50' W 002°28'0 0.0
2015-May-24 19:32N 36°50' W 002°28'0 0.0
2015-May-24 18:32N 36°50' W 002°28'0 0.0
2015-May-24 17:32N 36°50' W 002°28'0 0.0
2015-May-24 16:31N 36°50' W 002°28'0 0.0
2015-May-24 15:31N 36°50' W 002°28'0 0.0
2015-May-24 14:31N 36°50' W 002°28'0 0.0
2015-May-24 13:31N 36°50' W 002°28'0 0.0
2015-May-24 12:31N 36°50' W 002°28'0 0.0
2015-May-24 11:31N 36°50' W 002°28'0 0.0
2015-May-24 10:31N 36°50' W 002°28'0 0.0
2015-May-24 09:31N 36°50' W 002°28'0 0.0
2015-May-24 08:31N 36°50' W 002°28'0 0.0
2015-May-24 07:31N 36°50' W 002°28'0 0.0
2015-May-24 06:31N 36°50' W 002°28'0 0.0
2015-May-24 05:31N 36°50' W 002°28'0 0.0
2015-May-24 04:31N 36°50' W 002°28'0 0.0
2015-May-24 03:31N 36°50' W 002°28'0 0.0
2015-May-24 02:31N 36°50' W 002°28'0 0.0
2015-May-24 01:31N 36°50' W 002°28'0 0.0
2015-May-24 00:31N 36°50' W 002°28'0 0.0
2015-May-23 23:31N 36°50' W 002°28'0 0.0
2015-May-23 22:31N 36°50' W 002°28'0 0.0
2015-May-23 21:31N 36°50' W 002°28'0 0.0
2015-May-23 20:34N 36°50' W 002°28'1212.0
2015-May-23 19:34N 36°38' W 002°25'4016.2
2015-May-23 17:06N 35°60' W 002°13'915.9
2015-May-23 16:32N 35°51' W 002°09'3715.9
2015-May-23 14:10N 35°15' W 001°56'84 5.7
2015-May-22 23:33N 36°36' W 002°25'1010.1
2015-May-22 22:33N 36°46' W 002°27'5 4.6
2015-May-22 21:33N 36°50' W 002°28'0 0.0
2015-May-22 20:33N 36°50' W 002°28'0 0.0
2015-May-22 19:33N 36°50' W 002°28'0 0.0
2015-May-22 18:33N 36°50' W 002°28'0 0.0
2015-May-22 17:33N 36°50' W 002°28'0 0.0
2015-May-22 16:33N 36°50' W 002°28'0 0.0
2015-May-22 15:33N 36°50' W 002°28'0 0.0
2015-May-22 14:33N 36°50' W 002°28'0 0.0
2015-May-22 13:33N 36°50' W 002°28'0 0.0
2015-May-22 12:33N 36°50' W 002°28'0 0.0
2015-May-22 11:33N 36°50' W 002°28'0 0.0
2015-May-22 10:33N 36°50' W 002°28'0 0.0
2015-May-22 09:30N 36°50' W 002°28'0 0.0
2015-May-22 08:33N 36°50' W 002°28'0 0.0
2015-May-22 07:33N 36°50' W 002°28'0 0.0
2015-May-22 06:33N 36°50' W 002°28'0 0.0
2015-May-22 05:33N 36°50' W 002°28'0 0.0
2015-May-22 04:33N 36°50' W 002°28'0 0.0
2015-May-22 03:33N 36°50' W 002°28'0 0.0
2015-May-22 02:33N 36°50' W 002°28'0 0.0
2015-May-22 01:33N 36°50' W 002°28'0 0.0
2015-May-22 00:33N 36°50' W 002°28'0 0.0
2015-May-21 23:33N 36°50' W 002°28'0 0.0
2015-May-21 22:33N 36°50' W 002°28'0 0.0
2015-May-21 21:33N 36°50' W 002°28'0 0.0
2015-May-21 20:33N 36°50' W 002°28'0 0.0
2015-May-21 19:33N 36°50' W 002°28'0 0.0
2015-May-21 18:33N 36°50' W 002°28'0 0.0
2015-May-21 17:33N 36°50' W 002°28'0 0.0
2015-May-21 16:33N 36°50' W 002°28'0 0.0
2015-May-21 15:33N 36°50' W 002°28'0 0.0
2015-May-21 14:33N 36°50' W 002°28'0 0.0
2015-May-21 13:33N 36°50' W 002°28'0 0.0
2015-May-21 12:30N 36°50' W 002°28'0 0.0
2015-May-21 11:33N 36°50' W 002°28'0 0.0
2015-May-21 10:33N 36°50' W 002°28'0 0.0
2015-May-21 09:33N 36°50' W 002°28'0 0.0
2015-May-21 07:33N 36°50' W 002°28'0 0.0
2015-May-21 06:33N 36°50' W 002°28'0 0.0
2015-May-21 05:33N 36°50' W 002°28'0 0.0
2015-May-21 04:32N 36°50' W 002°28'0 0.0
2015-May-21 03:32N 36°50' W 002°28'0 0.0
2015-May-21 02:32N 36°50' W 002°28'0 0.0
2015-May-21 01:32N 36°50' W 002°28'0 0.0
2015-May-21 00:32N 36°50' W 002°28'0 0.0
2015-May-20 23:32N 36°50' W 002°28'0 0.0
2015-May-20 22:33N 36°50' W 002°28'10 9.5
2015-May-20 21:33N 36°41' W 002°26'6 0.3
2015-May-19 23:28N 36°35' W 002°25'1011.3
2015-May-19 22:34N 36°45' W 002°27'5 4.7
2015-May-19 21:31N 36°50' W 002°28'0 0.0
2015-May-19 20:31N 36°50' W 002°28'0 0.0
2015-May-19 19:31N 36°50' W 002°28'0 0.0
2015-May-19 18:31N 36°50' W 002°28'0 0.0
2015-May-19 17:31N 36°50' W 002°28'0 0.0
2015-May-19 16:31N 36°50' W 002°28'0 0.0
2015-May-19 15:31N 36°50' W 002°28'0 0.0
2015-May-19 14:31N 36°50' W 002°28'0 0.0
2015-May-19 13:31N 36°50' W 002°28'0 0.0
2015-May-19 12:31N 36°50' W 002°28'0 0.0
2015-May-19 11:31N 36°50' W 002°28'0 0.0
2015-May-19 10:31N 36°50' W 002°28'0 0.0
2015-May-19 09:28N 36°50' W 002°28'0 0.0
2015-May-19 08:31N 36°50' W 002°28'0 0.0
2015-May-19 07:28N 36°50' W 002°28'0 0.0
2015-May-19 06:31N 36°50' W 002°28'0 0.0
2015-May-19 05:33N 36°50' W 002°28'0 0.0
2015-May-19 04:33N 36°50' W 002°28'0 0.0
2015-May-19 03:33N 36°50' W 002°28'0 0.0
2015-May-19 02:33N 36°50' W 002°28'0 0.0
2015-May-19 01:33N 36°50' W 002°28'0 0.0
2015-May-19 00:33N 36°50' W 002°28'0 0.0
2015-May-18 23:33N 36°50' W 002°28'0 0.0
2015-May-18 22:33N 36°50' W 002°28'0 0.0
2015-May-18 21:32N 36°50' W 002°28'8 7.9
2015-May-18 20:33N 36°42' W 002°26'1816.3
2015-May-18 19:27N 36°25' W 002°23'3015.2
2015-May-18 17:30N 36°08' W 001°52'1515.8
2015-May-18 16:33N 36°02' W 001°35'1615.8
2015-May-18 15:33N 35°57' W 001°17'1515.2
2015-May-18 14:33N 35°54' W 000°58'1514.9
2015-May-18 13:33N 35°52' W 000°40'95 6.6
2015-May-17 23:08N 36°35' W 002°25'814.6
2015-May-17 22:34N 36°43' W 002°27'7 6.3
2015-May-17 21:31N 36°50' W 002°28'0 0.0
2015-May-17 20:31N 36°50' W 002°28'0 0.0
2015-May-17 07:18N 36°50' W 002°28'  

Dump ship's entire track history